sensor_id;sensor_type;location;lat;lon;timestamp;pressure;altitude;pressure_sealevel;temperature;humidity
64841;BME280;51307;52.162;7.560;2024-02-23T00:02:19;98061.06;;;6.06;78.05
64841;BME280;51307;52.162;7.560;2024-02-23T00:04:45;98076.19;;;5.64;78.22
64841;BME280;51307;52.162;7.560;2024-02-23T00:07:11;98090.22;;;5.51;78.64
64841;BME280;51307;52.162;7.560;2024-02-23T00:09:36;98081.97;;;5.39;78.48
64841;BME280;51307;52.162;7.560;2024-02-23T00:12:02;98092.84;;;5.23;78.88
64841;BME280;51307;52.162;7.560;2024-02-23T00:14:29;98107.28;;;5.42;79.81
64841;BME280;51307;52.162;7.560;2024-02-23T00:16:56;98111.06;;;5.61;79.20
64841;BME280;51307;52.162;7.560;2024-02-23T00:19:22;98131.50;;;5.39;79.56
64841;BME280;51307;52.162;7.560;2024-02-23T00:21:49;98108.00;;;5.08;80.24
64841;BME280;51307;52.162;7.560;2024-02-23T00:24:16;98139.47;;;5.39;79.16
64841;BME280;51307;52.162;7.560;2024-02-23T00:26:42;98161.41;;;5.04;80.64
64841;BME280;51307;52.162;7.560;2024-02-23T00:29:08;98174.84;;;5.03;80.66
64841;BME280;51307;52.162;7.560;2024-02-23T00:31:37;98170.22;;;5.12;80.50
64841;BME280;51307;52.162;7.560;2024-02-23T00:34:02;98167.06;;;5.23;81.30
64841;BME280;51307;52.162;7.560;2024-02-23T00:36:28;98192.50;;;4.96;80.14
64841;BME280;51307;52.162;7.560;2024-02-23T00:38:53;98190.75;;;5.25;79.99
64841;BME280;51307;52.162;7.560;2024-02-23T00:41:19;98212.22;;;4.93;80.92
64841;BME280;51307;52.162;7.560;2024-02-23T00:43:44;98210.00;;;4.75;81.16
64841;BME280;51307;52.162;7.560;2024-02-23T00:46:10;98211.25;;;5.16;81.39
64841;BME280;51307;52.162;7.560;2024-02-23T00:48:35;98227.88;;;4.88;82.30
64841;BME280;51307;52.162;7.560;2024-02-23T00:51:03;98225.81;;;5.05;81.44
64841;BME280;51307;52.162;7.560;2024-02-23T00:53:31;98235.19;;;4.86;80.65
64841;BME280;51307;52.162;7.560;2024-02-23T00:55:57;98254.28;;;4.81;81.43
64841;BME280;51307;52.162;7.560;2024-02-23T00:58:22;98246.34;;;4.81;80.42
64841;BME280;51307;52.162;7.560;2024-02-23T01:00:48;98242.81;;;5.32;81.01
64841;BME280;51307;52.162;7.560;2024-02-23T01:03:13;98255.63;;;5.07;81.73
64841;BME280;51307;52.162;7.560;2024-02-23T01:05:39;98266.53;;;4.82;80.83
64841;BME280;51307;52.162;7.560;2024-02-23T01:08:05;98269.91;;;4.91;80.51
64841;BME280;51307;52.162;7.560;2024-02-23T01:10:30;98277.72;;;5.14;78.81
64841;BME280;51307;52.162;7.560;2024-02-23T01:12:56;98293.50;;;4.86;79.90
64841;BME280;51307;52.162;7.560;2024-02-23T01:15:22;98275.47;;;4.81;80.42
64841;BME280;51307;52.162;7.560;2024-02-23T01:17:48;98300.53;;;4.79;80.01
64841;BME280;51307;52.162;7.560;2024-02-23T01:20:13;98291.81;;;5.00;80.50
64841;BME280;51307;52.162;7.560;2024-02-23T01:22:39;98311.22;;;4.85;80.08
64841;BME280;51307;52.162;7.560;2024-02-23T01:25:05;98322.16;;;4.82;79.62
64841;BME280;51307;52.162;7.560;2024-02-23T01:27:30;98328.81;;;5.08;77.74
64841;BME280;51307;52.162;7.560;2024-02-23T01:29:56;98334.69;;;5.03;78.70
64841;BME280;51307;52.162;7.560;2024-02-23T01:32:22;98325.44;;;4.99;78.61
64841;BME280;51307;52.162;7.560;2024-02-23T01:34:47;98325.00;;;4.81;79.16
64841;BME280;51307;52.162;7.560;2024-02-23T01:37:13;98338.31;;;5.02;78.45
64841;BME280;51307;52.162;7.560;2024-02-23T01:39:38;98335.06;;;5.00;79.54
64841;BME280;51307;52.162;7.560;2024-02-23T01:42:04;98334.59;;;4.82;79.32
64841;BME280;51307;52.162;7.560;2024-02-23T01:44:29;98335.78;;;4.94;79.65
64841;BME280;51307;52.162;7.560;2024-02-23T01:46:55;98340.28;;;4.94;78.57
64841;BME280;51307;52.162;7.560;2024-02-23T01:49:21;98348.19;;;5.23;77.42
64841;BME280;51307;52.162;7.560;2024-02-23T01:51:48;98351.66;;;5.09;77.42
64841;BME280;51307;52.162;7.560;2024-02-23T01:54:16;98352.56;;;5.16;77.81
64841;BME280;51307;52.162;7.560;2024-02-23T01:56:41;98355.63;;;5.35;77.07
64841;BME280;51307;52.162;7.560;2024-02-23T01:59:10;98356.03;;;5.17;76.83
64841;BME280;51307;52.162;7.560;2024-02-23T02:01:36;98379.66;;;4.67;78.84
64841;BME280;51307;52.162;7.560;2024-02-23T02:04:02;98372.50;;;4.82;78.98
64841;BME280;51307;52.162;7.560;2024-02-23T02:06:27;98381.38;;;5.19;77.73
64841;BME280;51307;52.162;7.560;2024-02-23T02:08:53;98377.06;;;5.18;77.39
64841;BME280;51307;52.162;7.560;2024-02-23T02:11:19;98366.66;;;5.02;77.46
64841;BME280;51307;52.162;7.560;2024-02-23T02:13:45;98387.03;;;5.31;76.60
64841;BME280;51307;52.162;7.560;2024-02-23T02:16:11;98382.31;;;5.48;76.63
64841;BME280;51307;52.162;7.560;2024-02-23T02:18:36;98387.91;;;5.38;77.26
64841;BME280;51307;52.162;7.560;2024-02-23T02:21:02;98387.91;;;5.38;77.31
64841;BME280;51307;52.162;7.560;2024-02-23T02:23:28;98391.50;;;5.31;77.38
64841;BME280;51307;52.162;7.560;2024-02-23T02:25:58;98386.78;;;5.11;77.56
64841;BME280;51307;52.162;7.560;2024-02-23T02:28:25;98405.88;;;4.92;77.68
64841;BME280;51307;52.162;7.560;2024-02-23T02:30:52;98391.50;;;5.31;77.70
64841;BME280;51307;52.162;7.560;2024-02-23T02:33:18;98392.97;;;5.18;77.75
64841;BME280;51307;52.162;7.560;2024-02-23T02:35:44;98397.78;;;5.30;76.73
64841;BME280;51307;52.162;7.560;2024-02-23T02:38:10;98405.38;;;5.48;76.65
64841;BME280;51307;52.162;7.560;2024-02-23T02:40:36;98405.72;;;5.60;76.22
64841;BME280;51307;52.162;7.560;2024-02-23T02:43:02;98408.59;;;5.28;76.65
64841;BME280;51307;52.162;7.560;2024-02-23T02:45:28;98402.78;;;5.54;76.05
64841;BME280;51307;52.162;7.560;2024-02-23T02:47:53;98408.38;;;5.60;76.02
64841;BME280;51307;52.162;7.560;2024-02-23T02:50:19;98404.03;;;5.37;75.50
64841;BME280;51307;52.162;7.560;2024-02-23T02:52:44;98410.41;;;5.43;75.68
64841;BME280;51307;52.162;7.560;2024-02-23T02:55:10;98417.06;;;5.53;74.98
64841;BME280;51307;52.162;7.560;2024-02-23T02:57:35;98418.09;;;5.74;74.42
64841;BME280;51307;52.162;7.560;2024-02-23T03:00:02;98431.56;;;5.72;74.00
64841;BME280;51307;52.162;7.560;2024-02-23T03:02:31;98425.94;;;5.46;74.57
64841;BME280;51307;52.162;7.560;2024-02-23T03:04:57;98429.44;;;5.46;74.48
64841;BME280;51307;52.162;7.560;2024-02-23T03:07:22;98433.44;;;5.57;74.05
64841;BME280;51307;52.162;7.560;2024-02-23T03:09:48;98434.31;;;5.64;73.28
64841;BME280;51307;52.162;7.560;2024-02-23T03:12:16;98436.25;;;5.70;73.48
64841;BME280;51307;52.162;7.560;2024-02-23T03:14:41;98417.03;;;5.68;72.90
64841;BME280;51307;52.162;7.560;2024-02-23T03:17:08;98425.75;;;5.62;72.82
64841;BME280;51307;52.162;7.560;2024-02-23T03:19:35;98444.56;;;5.67;72.54
64841;BME280;51307;52.162;7.560;2024-02-23T03:22:00;98423.94;;;5.48;72.58
64841;BME280;51307;52.162;7.560;2024-02-23T03:24:26;98428.72;;;5.74;71.40
64841;BME280;51307;52.162;7.560;2024-02-23T03:26:51;98438.25;;;5.68;70.83
64841;BME280;51307;52.162;7.560;2024-02-23T03:29:17;98427.25;;;5.86;70.21
64841;BME280;51307;52.162;7.560;2024-02-23T03:31:42;98430.50;;;5.52;70.55
64841;BME280;51307;52.162;7.560;2024-02-23T03:34:08;98437.25;;;5.69;70.30
64841;BME280;51307;52.162;7.560;2024-02-23T03:36:34;98442.09;;;5.66;70.43
64841;BME280;51307;52.162;7.560;2024-02-23T03:39:00;98444.59;;;5.37;70.16
64841;BME280;51307;52.162;7.560;2024-02-23T03:41:26;98466.88;;;5.58;69.87
64841;BME280;51307;52.162;7.560;2024-02-23T03:43:52;98451.06;;;5.50;69.89
64841;BME280;51307;52.162;7.560;2024-02-23T03:46:17;98448.97;;;5.60;69.57
64841;BME280;51307;52.162;7.560;2024-02-23T03:48:44;98446.81;;;5.49;69.07
64841;BME280;51307;52.162;7.560;2024-02-23T03:51:10;98457.41;;;5.49;69.21
64841;BME280;51307;52.162;7.560;2024-02-23T03:53:35;98453.94;;;5.33;68.81
64841;BME280;51307;52.162;7.560;2024-02-23T03:56:02;98465.84;;;5.74;67.73
64841;BME280;51307;52.162;7.560;2024-02-23T03:58:28;98456.16;;;5.45;68.26
64841;BME280;51307;52.162;7.560;2024-02-23T04:00:53;98468.84;;;5.86;68.04
64841;BME280;51307;52.162;7.560;2024-02-23T04:03:19;98456.63;;;5.70;68.43
64841;BME280;51307;52.162;7.560;2024-02-23T04:05:44;98460.59;;;5.44;68.84
64841;BME280;51307;52.162;7.560;2024-02-23T04:08:10;98476.31;;;5.61;69.19
64841;BME280;51307;52.162;7.560;2024-02-23T04:10:35;98486.09;;;5.60;68.99
64841;BME280;51307;52.162;7.560;2024-02-23T04:13:01;98484.91;;;5.63;69.25
64841;BME280;51307;52.162;7.560;2024-02-23T04:15:27;98482.97;;;5.71;69.04
64841;BME280;51307;52.162;7.560;2024-02-23T04:17:52;98486.00;;;5.68;69.17
64841;BME280;51307;52.162;7.560;2024-02-23T04:20:18;98493.41;;;5.58;69.38
64841;BME280;51307;52.162;7.560;2024-02-23T04:22:44;98494.81;;;5.39;69.90
64841;BME280;51307;52.162;7.560;2024-02-23T04:25:09;98509.97;;;5.75;69.51
64841;BME280;51307;52.162;7.560;2024-02-23T04:27:35;98511.25;;;5.64;69.44
64841;BME280;51307;52.162;7.560;2024-02-23T04:30:01;98517.66;;;5.40;70.79
64841;BME280;51307;52.162;7.560;2024-02-23T04:32:26;98502.22;;;5.59;70.20
64841;BME280;51307;52.162;7.560;2024-02-23T04:34:52;98509.63;;;5.33;71.03
64841;BME280;51307;52.162;7.560;2024-02-23T04:37:17;98516.38;;;5.21;71.24
64841;BME280;51307;52.162;7.560;2024-02-23T04:39:46;98515.28;;;5.15;71.33
64841;BME280;51307;52.162;7.560;2024-02-23T04:42:11;98532.13;;;5.37;70.31
64841;BME280;51307;52.162;7.560;2024-02-23T04:44:37;98527.47;;;5.39;70.54
64841;BME280;51307;52.162;7.560;2024-02-23T04:47:02;98526.53;;;5.32;70.36
64841;BME280;51307;52.162;7.560;2024-02-23T04:49:28;98525.34;;;5.50;70.63
64841;BME280;51307;52.162;7.560;2024-02-23T04:51:54;98544.19;;;5.40;70.24
64841;BME280;51307;52.162;7.560;2024-02-23T04:54:20;98543.28;;;5.48;70.25
64841;BME280;51307;52.162;7.560;2024-02-23T04:56:46;98552.41;;;5.15;70.96
64841;BME280;51307;52.162;7.560;2024-02-23T04:59:13;98552.72;;;5.35;70.58
64841;BME280;51307;52.162;7.560;2024-02-23T05:01:38;98553.81;;;5.41;70.69
64841;BME280;51307;52.162;7.560;2024-02-23T05:04:04;98557.84;;;5.52;69.95
64841;BME280;51307;52.162;7.560;2024-02-23T05:06:30;98555.28;;;5.59;70.29
64841;BME280;51307;52.162;7.560;2024-02-23T05:08:55;98552.06;;;5.48;70.52
64841;BME280;51307;52.162;7.560;2024-02-23T05:11:21;98563.75;;;5.54;70.03
64841;BME280;51307;52.162;7.560;2024-02-23T05:13:47;98547.03;;;5.53;70.13
64841;BME280;51307;52.162;7.560;2024-02-23T05:16:16;98557.66;;;5.68;69.71
64841;BME280;51307;52.162;7.560;2024-02-23T05:18:42;98554.44;;;5.43;70.37
64841;BME280;51307;52.162;7.560;2024-02-23T05:21:08;98558.13;;;5.57;70.12
64841;BME280;51307;52.162;7.560;2024-02-23T05:23:35;98561.38;;;5.59;70.46
64841;BME280;51307;52.162;7.560;2024-02-23T05:26:00;98567.44;;;5.68;69.95
64841;BME280;51307;52.162;7.560;2024-02-23T05:28:26;98562.47;;;5.65;69.95
64841;BME280;51307;52.162;7.560;2024-02-23T05:30:51;98566.31;;;5.32;71.02
64841;BME280;51307;52.162;7.560;2024-02-23T05:33:17;98577.88;;;5.54;70.37
64841;BME280;51307;52.162;7.560;2024-02-23T05:35:46;98575.75;;;5.50;70.60
64841;BME280;51307;52.162;7.560;2024-02-23T05:38:14;98567.78;;;5.65;70.08
64841;BME280;51307;52.162;7.560;2024-02-23T05:40:40;98571.63;;;5.47;70.29
64841;BME280;51307;52.162;7.560;2024-02-23T05:43:05;98578.88;;;5.53;69.98
64841;BME280;51307;52.162;7.560;2024-02-23T05:45:30;98574.56;;;5.37;70.37
64841;BME280;51307;52.162;7.560;2024-02-23T05:47:56;98584.44;;;5.44;70.27
64841;BME280;51307;52.162;7.560;2024-02-23T05:50:21;98573.19;;;5.56;69.73
64841;BME280;51307;52.162;7.560;2024-02-23T05:52:47;98578.69;;;5.55;69.63
64841;BME280;51307;52.162;7.560;2024-02-23T05:55:12;98579.53;;;5.55;69.73
64841;BME280;51307;52.162;7.560;2024-02-23T05:57:38;98596.63;;;5.53;70.29
64841;BME280;51307;52.162;7.560;2024-02-23T06:00:04;98593.13;;;5.37;69.97
64841;BME280;51307;52.162;7.560;2024-02-23T06:02:30;98590.75;;;5.43;69.81
64841;BME280;51307;52.162;7.560;2024-02-23T06:04:55;98590.94;;;5.56;69.51
64841;BME280;51307;52.162;7.560;2024-02-23T06:07:21;98600.19;;;5.75;69.02
64841;BME280;51307;52.162;7.560;2024-02-23T06:09:57;98583.91;;;5.63;69.11
64841;BME280;51307;52.162;7.560;2024-02-23T06:12:23;98592.88;;;5.62;69.10
64841;BME280;51307;52.162;7.560;2024-02-23T06:14:48;98593.50;;;5.64;68.87
64841;BME280;51307;52.162;7.560;2024-02-23T06:17:14;98596.25;;;5.71;68.58
64841;BME280;51307;52.162;7.560;2024-02-23T06:19:39;98595.69;;;5.46;69.20
64841;BME280;51307;52.162;7.560;2024-02-23T06:22:05;98600.00;;;5.62;68.99
64841;BME280;51307;52.162;7.560;2024-02-23T06:24:30;98603.13;;;5.80;68.68
64841;BME280;51307;52.162;7.560;2024-02-23T06:26:56;98604.03;;;5.57;68.63
64841;BME280;51307;52.162;7.560;2024-02-23T06:29:23;98598.91;;;5.56;68.23
64841;BME280;51307;52.162;7.560;2024-02-23T06:31:48;98614.22;;;5.84;68.19
64841;BME280;51307;52.162;7.560;2024-02-23T06:34:15;98615.00;;;5.84;68.18
64841;BME280;51307;52.162;7.560;2024-02-23T06:36:42;98610.63;;;5.77;67.76
64841;BME280;51307;52.162;7.560;2024-02-23T06:39:07;98613.09;;;5.78;68.13
64841;BME280;51307;52.162;7.560;2024-02-23T06:41:33;98614.00;;;5.70;68.06
64841;BME280;51307;52.162;7.560;2024-02-23T06:43:59;98619.22;;;5.49;68.70
64841;BME280;51307;52.162;7.560;2024-02-23T06:46:24;98624.97;;;5.67;68.13
64841;BME280;51307;52.162;7.560;2024-02-23T06:48:50;98623.75;;;5.40;68.21
64841;BME280;51307;52.162;7.560;2024-02-23T06:51:15;98631.22;;;5.75;68.14
64841;BME280;51307;52.162;7.560;2024-02-23T06:53:41;98627.47;;;5.69;67.61
64841;BME280;51307;52.162;7.560;2024-02-23T06:56:07;98626.53;;;5.62;67.93
64841;BME280;51307;52.162;7.560;2024-02-23T06:58:33;98632.03;;;5.75;67.72
64841;BME280;51307;52.162;7.560;2024-02-23T07:00:58;98631.47;;;5.65;67.42
64841;BME280;51307;52.162;7.560;2024-02-23T07:03:24;98641.19;;;5.87;67.24
64841;BME280;51307;52.162;7.560;2024-02-23T07:05:50;98632.88;;;5.76;66.99
64841;BME280;51307;52.162;7.560;2024-02-23T07:08:16;98633.13;;;5.96;66.80
64841;BME280;51307;52.162;7.560;2024-02-23T07:10:41;98637.53;;;5.88;66.56
64841;BME280;51307;52.162;7.560;2024-02-23T07:13:07;98636.91;;;5.86;66.61
64841;BME280;51307;52.162;7.560;2024-02-23T07:15:33;98636.06;;;6.01;67.01
64841;BME280;51307;52.162;7.560;2024-02-23T07:18:01;98638.91;;;5.99;66.42
64841;BME280;51307;52.162;7.560;2024-02-23T07:20:26;98643.69;;;6.04;66.82
64841;BME280;51307;52.162;7.560;2024-02-23T07:22:52;98626.81;;;6.12;66.58
64841;BME280;51307;52.162;7.560;2024-02-23T07:25:18;98618.66;;;6.13;66.02
64841;BME280;51307;52.162;7.560;2024-02-23T07:27:46;98631.31;;;5.96;66.53
64841;BME280;51307;52.162;7.560;2024-02-23T07:30:14;98629.56;;;6.03;66.52
64841;BME280;51307;52.162;7.560;2024-02-23T07:32:41;98625.06;;;6.19;66.17
64841;BME280;51307;52.162;7.560;2024-02-23T07:35:07;98629.44;;;6.27;65.88
64841;BME280;51307;52.162;7.560;2024-02-23T07:37:32;98624.81;;;6.14;65.89
64841;BME280;51307;52.162;7.560;2024-02-23T07:39:58;98632.00;;;6.20;65.73
64841;BME280;51307;52.162;7.560;2024-02-23T07:42:23;98640.00;;;6.05;65.60
64841;BME280;51307;52.162;7.560;2024-02-23T07:44:49;98638.91;;;5.99;65.61
64841;BME280;51307;52.162;7.560;2024-02-23T07:47:14;98648.31;;;6.02;65.85
64841;BME280;51307;52.162;7.560;2024-02-23T07:49:40;98637.22;;;6.13;65.57
64841;BME280;51307;52.162;7.560;2024-02-23T07:52:08;98639.72;;;6.15;65.28
64841;BME280;51307;52.162;7.560;2024-02-23T07:54:34;98640.53;;;6.15;65.30
64841;BME280;51307;52.162;7.560;2024-02-23T07:57:00;98648.88;;;6.27;65.12
64841;BME280;51307;52.162;7.560;2024-02-23T07:59:25;98636.69;;;6.33;64.80
64841;BME280;51307;52.162;7.560;2024-02-23T08:01:50;98636.50;;;6.19;64.55
64841;BME280;51307;52.162;7.560;2024-02-23T08:04:16;98649.06;;;6.26;64.65
64841;BME280;51307;52.162;7.560;2024-02-23T08:06:42;98637.88;;;6.15;65.05
64841;BME280;51307;52.162;7.560;2024-02-23T08:09:10;98642.28;;;6.23;64.71
64841;BME280;51307;52.162;7.560;2024-02-23T08:11:36;98638.88;;;6.14;64.83
64841;BME280;51307;52.162;7.560;2024-02-23T08:14:01;98639.00;;;6.06;65.33
64841;BME280;51307;52.162;7.560;2024-02-23T08:16:28;98639.63;;;6.23;65.04
64841;BME280;51307;52.162;7.560;2024-02-23T08:18:54;98633.94;;;6.26;64.50
64841;BME280;51307;52.162;7.560;2024-02-23T08:21:19;98643.84;;;6.02;65.15
64841;BME280;51307;52.162;7.560;2024-02-23T08:23:45;98651.81;;;6.32;64.69
64841;BME280;51307;52.162;7.560;2024-02-23T08:26:10;98652.59;;;6.48;64.33
64841;BME280;51307;52.162;7.560;2024-02-23T08:28:36;98652.41;;;6.49;64.12
64841;BME280;51307;52.162;7.560;2024-02-23T08:31:01;98647.84;;;6.43;64.11
64841;BME280;51307;52.162;7.560;2024-02-23T08:33:27;98656.06;;;6.48;63.89
64841;BME280;51307;52.162;7.560;2024-02-23T08:35:52;98654.25;;;6.34;63.07
64841;BME280;51307;52.162;7.560;2024-02-23T08:38:18;98650.50;;;6.43;63.15
64841;BME280;51307;52.162;7.560;2024-02-23T08:40:44;98639.69;;;6.45;63.51
64841;BME280;51307;52.162;7.560;2024-02-23T08:43:10;98648.31;;;6.32;62.82
64841;BME280;51307;52.162;7.560;2024-02-23T08:45:36;98654.97;;;6.43;62.44
64841;BME280;51307;52.162;7.560;2024-02-23T08:48:02;98665.41;;;6.59;62.38
64841;BME280;51307;52.162;7.560;2024-02-23T08:50:29;98644.66;;;6.69;62.54
64841;BME280;51307;52.162;7.560;2024-02-23T08:52:54;98656.13;;;6.70;61.96
64841;BME280;51307;52.162;7.560;2024-02-23T08:55:20;98652.00;;;6.67;61.50
64841;BME280;51307;52.162;7.560;2024-02-23T08:57:47;98659.00;;;6.75;61.40
64841;BME280;51307;52.162;7.560;2024-02-23T09:00:13;98657.34;;;6.37;61.56
64841;BME280;51307;52.162;7.560;2024-02-23T09:02:39;98670.75;;;6.81;61.58
64841;BME280;51307;52.162;7.560;2024-02-23T09:05:07;98650.41;;;6.73;61.18
64841;BME280;51307;52.162;7.560;2024-02-23T09:07:32;98662.22;;;6.34;61.03
64841;BME280;51307;52.162;7.560;2024-02-23T09:09:58;98664.94;;;6.55;61.06
64841;BME280;51307;52.162;7.560;2024-02-23T09:12:23;98672.34;;;6.60;61.32
64841;BME280;51307;52.162;7.560;2024-02-23T09:14:49;98655.34;;;6.76;60.84
64841;BME280;51307;52.162;7.560;2024-02-23T09:17:14;98663.97;;;6.78;60.68
64841;BME280;51307;52.162;7.560;2024-02-23T09:19:40;98667.06;;;6.82;60.77
64841;BME280;51307;52.162;7.560;2024-02-23T09:22:05;98661.38;;;6.85;59.96
64841;BME280;51307;52.162;7.560;2024-02-23T09:24:31;98656.69;;;6.87;60.42
64841;BME280;51307;52.162;7.560;2024-02-23T09:26:57;98666.44;;;6.80;59.59
64841;BME280;51307;52.162;7.560;2024-02-23T09:29:22;98655.22;;;6.84;59.90
64841;BME280;51307;52.162;7.560;2024-02-23T09:31:48;98666.50;;;6.86;60.19
64841;BME280;51307;52.162;7.560;2024-02-23T09:34:13;98668.03;;;6.74;59.94
64841;BME280;51307;52.162;7.560;2024-02-23T09:36:39;98675.22;;;6.95;60.80
64841;BME280;51307;52.162;7.560;2024-02-23T09:39:04;98681.53;;;6.94;60.56
64841;BME280;51307;52.162;7.560;2024-02-23T09:41:30;98679.78;;;7.01;60.68
64841;BME280;51307;52.162;7.560;2024-02-23T09:43:58;98682.38;;;6.80;61.01
64841;BME280;51307;52.162;7.560;2024-02-23T09:46:25;98685.13;;;6.86;61.14
64841;BME280;51307;52.162;7.560;2024-02-23T09:48:52;98691.50;;;6.92;60.89
64841;BME280;51307;52.162;7.560;2024-02-23T09:51:19;98693.16;;;6.93;61.22
64841;BME280;51307;52.162;7.560;2024-02-23T09:53:49;98695.94;;;7.00;61.83
64841;BME280;51307;52.162;7.560;2024-02-23T09:56:16;98702.63;;;6.96;61.60
64841;BME280;51307;52.162;7.560;2024-02-23T09:58:44;98697.31;;;6.96;61.53
64841;BME280;51307;52.162;7.560;2024-02-23T10:01:18;98698.41;;;6.86;61.70
64841;BME280;51307;52.162;7.560;2024-02-23T10:03:45;98694.09;;;7.00;62.03
64841;BME280;51307;52.162;7.560;2024-02-23T10:06:11;98704.44;;;6.95;61.83
64841;BME280;51307;52.162;7.560;2024-02-23T10:08:36;98706.47;;;6.93;61.93
64841;BME280;51307;52.162;7.560;2024-02-23T10:11:02;98694.81;;;6.94;62.45
64841;BME280;51307;52.162;7.560;2024-02-23T10:13:29;98695.19;;;6.91;61.81
64841;BME280;51307;52.162;7.560;2024-02-23T10:15:55;98700.13;;;6.94;62.13
64841;BME280;51307;52.162;7.560;2024-02-23T10:18:20;98696.94;;;6.99;62.38
64841;BME280;51307;52.162;7.560;2024-02-23T10:20:46;98700.13;;;6.94;62.34
64841;BME280;51307;52.162;7.560;2024-02-23T10:23:12;98705.38;;;7.02;62.28
64841;BME280;51307;52.162;7.560;2024-02-23T10:25:38;98708.44;;;7.06;61.63
64841;BME280;51307;52.162;7.560;2024-02-23T10:28:04;98707.84;;;7.04;61.73
64841;BME280;51307;52.162;7.560;2024-02-23T10:30:30;98710.22;;;6.99;61.88
64841;BME280;51307;52.162;7.560;2024-02-23T10:32:57;98707.97;;;7.17;61.57
64841;BME280;51307;52.162;7.560;2024-02-23T10:35:24;98706.44;;;7.08;61.86
64841;BME280;51307;52.162;7.560;2024-02-23T10:37:51;98712.50;;;7.02;61.89
64841;BME280;51307;52.162;7.560;2024-02-23T10:40:21;98707.47;;;6.92;61.58
64841;BME280;51307;52.162;7.560;2024-02-23T10:42:49;98710.09;;;7.07;61.27
64841;BME280;51307;52.162;7.560;2024-02-23T10:45:18;98710.19;;;7.14;61.66
64841;BME280;51307;52.162;7.560;2024-02-23T10:47:45;98711.56;;;7.10;61.58
64841;BME280;51307;52.162;7.560;2024-02-23T10:50:12;98711.69;;;7.01;61.58
64841;BME280;51307;52.162;7.560;2024-02-23T10:52:42;98703.97;;;7.06;61.48
64841;BME280;51307;52.162;7.560;2024-02-23T10:55:12;98713.47;;;7.16;61.19
64841;BME280;51307;52.162;7.560;2024-02-23T10:57:38;98716.38;;;7.21;61.21
64841;BME280;51307;52.162;7.560;2024-02-23T11:00:06;98715.03;;;7.10;61.00
64841;BME280;51307;52.162;7.560;2024-02-23T11:02:55;98713.09;;;7.19;61.33
64841;BME280;51307;52.162;7.560;2024-02-23T11:05:22;98713.66;;;7.14;60.78
64841;BME280;51307;52.162;7.560;2024-02-23T11:07:49;98713.09;;;7.19;61.00
64841;BME280;51307;52.162;7.560;2024-02-23T11:10:15;98713.03;;;7.34;61.32
64841;BME280;51307;52.162;7.560;2024-02-23T11:12:41;98706.56;;;7.21;61.11
64841;BME280;51307;52.162;7.560;2024-02-23T11:15:07;98718.09;;;7.29;61.13
64841;BME280;51307;52.162;7.560;2024-02-23T11:17:35;98722.47;;;7.36;60.68
64841;BME280;51307;52.162;7.560;2024-02-23T11:20:03;98708.22;;;7.44;60.78
64841;BME280;51307;52.162;7.560;2024-02-23T11:22:32;98713.34;;;7.46;60.51
64841;BME280;51307;52.162;7.560;2024-02-23T11:25:06;98709.44;;;7.41;60.92
64841;BME280;51307;52.162;7.560;2024-02-23T11:27:34;98704.78;;;7.50;60.30
64841;BME280;51307;52.162;7.560;2024-02-23T11:32:48;98704.03;;;7.56;60.05
64841;BME280;51307;52.162;7.560;2024-02-23T11:35:16;98693.19;;;7.58;59.99
64841;BME280;51307;52.162;7.560;2024-02-23T11:40:15;98700.31;;;7.51;59.64
64841;BME280;51307;52.162;7.560;2024-02-23T11:42:43;98698.38;;;7.66;59.99
64841;BME280;51307;52.162;7.560;2024-02-23T11:45:09;98697.16;;;7.69;59.68
64841;BME280;51307;52.162;7.560;2024-02-23T11:47:37;98702.53;;;7.75;59.22
64841;BME280;51307;52.162;7.560;2024-02-23T11:50:04;98711.16;;;7.78;59.59
64841;BME280;51307;52.162;7.560;2024-02-23T11:52:32;98710.31;;;7.77;59.17
64841;BME280;51307;52.162;7.560;2024-02-23T11:54:57;98709.41;;;7.63;59.32
64841;BME280;51307;52.162;7.560;2024-02-23T11:57:24;98713.19;;;7.75;59.22
64841;BME280;51307;52.162;7.560;2024-02-23T11:59:51;98722.75;;;7.70;59.14
64841;BME280;51307;52.162;7.560;2024-02-23T12:02:17;98710.22;;;7.64;59.66
64841;BME280;51307;52.162;7.560;2024-02-23T12:04:43;98727.84;;;7.65;59.60
64841;BME280;51307;52.162;7.560;2024-02-23T12:07:08;98727.69;;;7.73;60.19
64841;BME280;51307;52.162;7.560;2024-02-23T12:09:35;98727.13;;;7.56;60.23
64841;BME280;51307;52.162;7.560;2024-02-23T12:12:00;98736.84;;;7.64;60.41
64841;BME280;51307;52.162;7.560;2024-02-23T12:14:26;98730.06;;;7.39;61.04
64841;BME280;51307;52.162;7.560;2024-02-23T12:16:52;98726.00;;;7.65;61.47
64841;BME280;51307;52.162;7.560;2024-02-23T12:19:17;98738.63;;;7.56;61.50
64841;BME280;51307;52.162;7.560;2024-02-23T12:21:46;98732.47;;;7.78;61.52
64841;BME280;51307;52.162;7.560;2024-02-23T12:24:12;98727.84;;;7.65;62.05
64841;BME280;51307;52.162;7.560;2024-02-23T12:26:38;98727.59;;;7.88;61.44
64841;BME280;51307;52.162;7.560;2024-02-23T12:29:04;98723.28;;;7.87;61.73
64841;BME280;51307;52.162;7.560;2024-02-23T12:31:32;98714.28;;;7.88;61.35
64841;BME280;51307;52.162;7.560;2024-02-23T12:33:58;98715.34;;;7.94;61.00
64841;BME280;51307;52.162;7.560;2024-02-23T12:36:24;98717.09;;;8.08;60.82
64841;BME280;51307;52.162;7.560;2024-02-23T12:38:49;98709.69;;;8.03;60.31
64841;BME280;51307;52.162;7.560;2024-02-23T12:41:15;98715.13;;;8.17;60.33
64841;BME280;51307;52.162;7.560;2024-02-23T12:43:40;98715.59;;;7.99;60.11
64841;BME280;51307;52.162;7.560;2024-02-23T12:46:06;98720.34;;;8.03;59.87
64841;BME280;51307;52.162;7.560;2024-02-23T12:48:33;98721.47;;;7.87;59.11
64841;BME280;51307;52.162;7.560;2024-02-23T12:50:59;98723.63;;;8.05;59.99
64841;BME280;51307;52.162;7.560;2024-02-23T12:55:58;98721.41;;;8.09;58.86
64841;BME280;51307;52.162;7.560;2024-02-23T12:58:24;98732.63;;;8.04;59.02
64841;BME280;51307;52.162;7.560;2024-02-23T13:00:49;98732.38;;;7.93;58.53
64841;BME280;51307;52.162;7.560;2024-02-23T13:03:15;98740.41;;;7.99;58.76
64841;BME280;51307;52.162;7.560;2024-02-23T13:05:40;98745.72;;;7.99;59.51
64841;BME280;51307;52.162;7.560;2024-02-23T13:08:06;98757.88;;;7.58;60.96
64841;BME280;51307;52.162;7.560;2024-02-23T13:10:31;98771.50;;;7.70;61.65
64841;BME280;51307;52.162;7.560;2024-02-23T13:12:57;98779.09;;;7.30;63.30